createdAt,value
2023-03-06T00:00:51.898Z,85.73
2023-03-06T00:03:19.430Z,85.68
2023-03-06T00:05:47.183Z,85.75
2023-03-06T00:08:13.801Z,85.79
2023-03-06T00:10:40.612Z,85.75
2023-03-06T00:13:11.228Z,85.86
2023-03-06T00:15:37.949Z,85.76
2023-03-06T00:18:05.651Z,85.71
2023-03-06T00:20:33.524Z,85.74
2023-03-06T00:23:00.299Z,85.76
2023-03-06T00:25:27.063Z,85.95
2023-03-06T00:27:53.572Z,85.78
2023-03-06T00:30:22.982Z,85.76
2023-03-06T00:32:49.728Z,85.77
2023-03-06T00:35:16.549Z,85.69
2023-03-06T00:37:43.898Z,85.74
2023-03-06T00:40:19.253Z,85.56
2023-03-06T00:42:47.126Z,85.73
2023-03-06T00:45:14.291Z,85.69
2023-03-06T00:47:41.558Z,85.67
2023-03-06T00:50:10.448Z,85.70
2023-03-06T00:52:37.418Z,85.76
2023-03-06T00:55:05.296Z,85.44
2023-03-06T00:57:31.833Z,85.45
2023-03-06T00:59:58.585Z,85.46
2023-03-06T01:02:25.549Z,85.60
2023-03-06T01:04:54.862Z,85.54
2023-03-06T01:07:21.684Z,85.49
2023-03-06T01:09:48.420Z,85.29
2023-03-06T01:12:15.596Z,85.38
2023-03-06T01:14:42.181Z,85.55
2023-03-06T01:17:09.898Z,85.21
2023-03-06T01:19:36.631Z,85.45
2023-03-06T01:22:03.181Z,85.42
2023-03-06T01:24:29.706Z,85.45
2023-03-06T01:26:56.368Z,85.41
2023-03-06T01:29:23.015Z,85.39
2023-03-06T01:31:49.612Z,85.35
2023-03-06T01:34:16.231Z,85.25
2023-03-06T01:36:42.933Z,85.50
2023-03-06T01:39:09.922Z,85.39
2023-03-06T01:41:36.702Z,85.35
2023-03-06T01:44:03.397Z,85.51
2023-03-06T01:46:56.904Z,85.43
2023-03-06T01:49:28.780Z,85.45
2023-03-06T01:52:01.218Z,85.41
2023-03-06T01:54:35.338Z,85.41
2023-03-06T01:57:09.028Z,85.48
2023-03-06T01:59:37.861Z,85.55
2023-03-06T02:02:07.559Z,85.71
2023-03-06T02:04:37.654Z,85.68
2023-03-06T02:07:05.557Z,85.90
2023-03-06T02:09:35.326Z,85.91
2023-03-06T02:12:08.616Z,85.83
2023-03-06T02:14:35.452Z,85.97
2023-03-06T02:17:03.439Z,85.94
2023-03-06T02:19:55.674Z,85.85
2023-03-06T02:22:25.253Z,86.07
2023-03-06T02:25:07.252Z,85.87
2023-03-06T02:27:34.144Z,85.81
2023-03-06T02:30:06.409Z,85.99
2023-03-06T02:32:33.213Z,85.94
2023-03-06T02:34:59.824Z,86.16
2023-03-06T02:37:28.190Z,86.12
2023-03-06T02:40:08.929Z,86.06
2023-03-06T02:42:35.547Z,86.13
2023-03-06T02:45:04.891Z,86.08
2023-03-06T02:47:31.425Z,86.04
2023-03-06T02:49:58.104Z,86.17
2023-03-06T02:52:24.678Z,86.19
2023-03-06T02:54:51.187Z,86.03
2023-03-06T02:57:17.734Z,85.99
2023-03-06T02:59:44.772Z,86.05
2023-03-06T03:02:11.525Z,86.27
2023-03-06T03:04:38.238Z,86.17
2023-03-06T03:07:05.758Z,86.26
2023-03-06T03:09:36.224Z,86.43
2023-03-06T03:12:05.165Z,86.50
2023-03-06T03:14:32.525Z,86.45
2023-03-06T03:17:00.822Z,86.58
2023-03-06T03:19:27.700Z,86.37
2023-03-06T03:21:55.090Z,86.36
2023-03-06T03:24:22.882Z,86.59
2023-03-06T03:26:49.932Z,86.68
2023-03-06T03:29:19.921Z,86.79
2023-03-06T03:31:48.009Z,86.73
2023-03-06T03:34:15.229Z,86.79
2023-03-06T03:36:41.874Z,86.96
2023-03-06T03:39:10.019Z,86.93
2023-03-06T03:41:37.266Z,86.81
2023-03-06T03:44:06.308Z,87.00
2023-03-06T03:46:33.049Z,86.85
2023-03-06T03:49:00.216Z,87.07
2023-03-06T03:51:27.335Z,86.90
2023-03-06T03:53:56.148Z,87.33
2023-03-06T03:56:24.070Z,87.17
2023-03-06T03:58:56.288Z,87.29
2023-03-06T04:01:24.066Z,87.37
2023-03-06T04:03:50.681Z,87.16
2023-03-06T04:06:17.940Z,87.41
2023-03-06T04:08:46.422Z,87.35
2023-03-06T04:11:13.304Z,87.40
2023-03-06T04:13:40.020Z,87.76
2023-03-06T04:16:06.955Z,87.62
2023-03-06T04:18:34.000Z,87.35
2023-03-06T04:21:04.008Z,87.76
2023-03-06T04:23:30.868Z,87.49
2023-03-06T04:25:57.673Z,87.60
2023-03-06T04:28:24.749Z,87.54
2023-03-06T04:30:51.430Z,87.70
2023-03-06T04:33:18.393Z,87.61
2023-03-06T04:35:44.957Z,87.70
2023-03-06T04:38:16.004Z,87.60
2023-03-06T04:40:44.806Z,87.55
2023-03-06T04:43:11.735Z,87.59
2023-03-06T04:45:38.299Z,87.64
2023-03-06T04:48:05.231Z,87.69
2023-03-06T04:50:32.488Z,87.79
2023-03-06T04:53:00.597Z,87.71
2023-03-06T04:55:27.835Z,87.72
2023-03-06T04:57:54.480Z,87.61
2023-03-06T05:00:24.914Z,87.64
2023-03-06T05:02:51.859Z,87.70
2023-03-06T05:05:18.862Z,87.49
2023-03-06T05:07:46.172Z,87.67
2023-03-06T05:10:16.039Z,87.40
2023-03-06T05:12:43.506Z,87.59
2023-03-06T05:15:11.476Z,87.63
2023-03-06T05:17:38.502Z,87.69
2023-03-06T05:20:10.148Z,87.66
2023-03-06T05:22:36.702Z,87.41
2023-03-06T05:25:04.399Z,87.73
2023-03-06T05:27:31.023Z,87.69
2023-03-06T05:29:57.672Z,87.66
2023-03-06T05:32:24.344Z,87.46
2023-03-06T05:34:51.263Z,87.62
2023-03-06T05:37:17.938Z,87.69
2023-03-06T05:39:44.832Z,87.60
2023-03-06T05:42:11.362Z,87.67
2023-03-06T05:44:37.942Z,87.56
2023-03-06T05:47:04.631Z,87.55
2023-03-06T05:49:33.152Z,87.68
2023-03-06T05:52:00.806Z,87.52
2023-03-06T05:54:27.317Z,87.69
2023-03-06T05:56:53.973Z,87.39
2023-03-06T05:59:20.470Z,87.43
2023-03-06T06:01:47.054Z,87.59
2023-03-06T06:04:14.339Z,87.27
2023-03-06T06:06:40.892Z,87.43
2023-03-06T06:09:08.381Z,87.38
2023-03-06T06:11:34.898Z,87.17
2023-03-06T06:14:01.426Z,87.10
2023-03-06T06:16:27.960Z,87.17
2023-03-06T06:18:56.249Z,87.21
2023-03-06T06:21:22.781Z,87.31
2023-03-06T06:23:49.363Z,87.27
2023-03-06T06:26:16.039Z,87.06
2023-03-06T06:28:42.740Z,86.83
2023-03-06T06:31:11.733Z,87.11
2023-03-06T06:33:40.269Z,86.79
2023-03-06T06:36:18.540Z,86.86
2023-03-06T06:38:45.203Z,86.96
2023-03-06T06:41:36.100Z,87.08
2023-03-06T06:43:59.173Z,86.73
2023-03-06T06:47:14.301Z,86.81
2023-03-06T06:49:14.075Z,87.01
2023-03-06T06:51:41.032Z,87.17
2023-03-06T06:54:07.929Z,86.92
2023-03-06T06:56:34.701Z,86.91
2023-03-06T06:59:15.754Z,86.67
2023-03-06T07:01:43.130Z,86.30
2023-03-06T07:04:13.109Z,86.58
2023-03-06T07:06:42.213Z,86.63
2023-03-06T07:09:09.507Z,86.57
2023-03-06T07:11:37.030Z,85.88
2023-03-06T07:14:03.580Z,86.60
2023-03-06T07:16:30.318Z,86.15
2023-03-06T07:18:56.949Z,86.75
2023-03-06T07:21:23.704Z,86.32
2023-03-06T07:23:50.260Z,86.29
2023-03-06T07:26:16.965Z,86.51
2023-03-06T07:28:52.415Z,85.96
2023-03-06T07:31:22.120Z,86.00
2023-03-06T07:33:49.994Z,85.74
2023-03-06T07:36:17.590Z,85.63
2023-03-06T07:38:44.462Z,85.48
2023-03-06T07:41:13.178Z,85.48
2023-03-06T07:43:40.891Z,85.20
2023-03-06T07:46:08.520Z,85.50
2023-03-06T07:48:36.417Z,84.76
2023-03-06T07:51:06.454Z,84.76
2023-03-06T07:53:34.039Z,84.82
2023-03-06T07:56:07.870Z,84.64
2023-03-06T07:58:35.992Z,84.66
2023-03-06T08:01:08.617Z,84.40
2023-03-06T08:03:36.882Z,84.55
2023-03-06T08:06:12.658Z,84.35
2023-03-06T08:08:41.734Z,84.19
2023-03-06T08:11:13.380Z,83.99
2023-03-06T08:13:41.156Z,84.14
2023-03-06T08:16:08.373Z,84.17
2023-03-06T08:18:35.978Z,83.72
2023-03-06T08:21:07.176Z,83.84
2023-03-06T08:23:34.979Z,84.05
2023-03-06T08:26:13.916Z,83.72
2023-03-06T08:28:40.809Z,83.84
2023-03-06T08:31:29.590Z,83.61
2023-03-06T08:33:58.620Z,83.21
2023-03-06T08:36:25.262Z,83.65
2023-03-06T08:38:52.338Z,83.32
2023-03-06T08:41:20.388Z,83.03
2023-03-06T08:43:47.256Z,82.98
2023-03-06T08:46:13.872Z,82.40
2023-03-06T08:48:40.921Z,81.80
2023-03-06T08:51:09.118Z,81.99
2023-03-06T08:53:43.210Z,81.48
2023-03-06T08:56:24.353Z,81.04
2023-03-06T08:58:51.749Z,81.17
2023-03-06T09:01:26.963Z,81.04
2023-03-06T09:03:55.859Z,80.70
2023-03-06T09:06:23.726Z,80.45
2023-03-06T09:08:51.731Z,79.51
2023-03-06T09:11:19.752Z,80.22
2023-03-06T09:13:46.768Z,80.62
2023-03-06T09:16:13.496Z,79.89
2023-03-06T09:18:40.356Z,79.83
2023-03-06T09:21:08.605Z,79.07
2023-03-06T09:23:38.725Z,78.64
2023-03-06T09:26:06.754Z,78.96
2023-03-06T09:28:36.413Z,78.63
2023-03-06T09:31:07.741Z,78.82
2023-03-06T09:33:34.436Z,78.47
2023-03-06T09:36:01.941Z,78.25
2023-03-06T09:38:29.191Z,78.41
2023-03-06T09:41:11.777Z,78.34
2023-03-06T09:43:45.815Z,78.39
2023-03-06T09:46:24.313Z,78.51
2023-03-06T09:49:00.606Z,77.69
2023-03-06T09:51:33.104Z,77.51
2023-03-06T09:54:13.655Z,77.00
2023-03-06T09:56:48.318Z,76.89
2023-03-06T09:59:24.324Z,76.77
2023-03-06T10:02:01.116Z,76.63
2023-03-06T10:04:36.130Z,76.56
2023-03-06T10:07:19.632Z,76.54
2023-03-06T10:09:59.234Z,76.36
2023-03-06T10:12:28.942Z,76.44
2023-03-06T10:15:13.726Z,75.64
2023-03-06T10:17:41.914Z,75.31
2023-03-06T10:20:31.077Z,75.91
2023-03-06T10:23:06.860Z,75.41
2023-03-06T10:25:49.326Z,74.69
2023-03-06T10:28:20.569Z,74.71
2023-03-06T10:31:32.618Z,75.09
2023-03-06T10:34:22.143Z,75.63
2023-03-06T10:36:49.959Z,75.25
2023-03-06T10:39:19.202Z,74.38
2023-03-06T10:41:47.213Z,74.26
2023-03-06T10:44:15.336Z,73.65
2023-03-06T10:46:45.300Z,73.90
2023-03-06T10:49:23.470Z,73.66
2023-03-06T10:51:57.933Z,72.34
2023-03-06T10:54:25.916Z,72.82
2023-03-06T10:56:52.492Z,71.98
2023-03-06T10:59:27.599Z,72.01
2023-03-06T11:02:15.229Z,71.48
2023-03-06T11:04:46.616Z,70.80
2023-03-06T11:07:21.021Z,70.87
2023-03-06T11:09:56.592Z,69.76
2023-03-06T11:12:31.670Z,70.43
2023-03-06T11:15:10.016Z,69.35
2023-03-06T11:17:48.992Z,68.62
2023-03-06T11:20:20.002Z,68.82
2023-03-06T11:22:51.699Z,68.06
2023-03-06T11:25:20.318Z,68.34
2023-03-06T11:27:55.151Z,66.68
2023-03-06T11:30:31.874Z,66.94
2023-03-06T11:33:02.661Z,66.31
2023-03-06T11:36:00.489Z,66.78
2023-03-06T11:38:34.938Z,65.73
2023-03-06T11:41:12.694Z,67.45
2023-03-06T11:44:07.570Z,66.71
2023-03-06T11:46:40.280Z,64.81
2023-03-06T11:49:25.489Z,64.62
2023-03-06T11:52:02.099Z,64.41
2023-03-06T11:54:28.671Z,64.61
2023-03-06T11:57:06.000Z,64.57
2023-03-06T11:59:35.135Z,64.29
2023-03-06T12:02:21.235Z,64.00
2023-03-06T12:04:56.673Z,64.61
2023-03-06T12:07:33.427Z,64.04
2023-03-06T12:10:38.062Z,63.79
2023-03-06T12:16:15.631Z,63.48
2023-03-06T12:18:51.033Z,64.34
2023-03-06T12:21:32.587Z,64.74
2023-03-06T12:24:16.838Z,64.69
2023-03-06T12:27:16.050Z,64.59
2023-03-06T12:30:10.193Z,64.18
2023-03-06T12:32:48.961Z,64.23
2023-03-06T12:35:18.345Z,63.88
2023-03-06T12:38:29.626Z,64.22
2023-03-06T12:41:20.853Z,64.61
2023-03-06T12:44:05.928Z,64.52
2023-03-06T12:46:43.366Z,64.47
2023-03-06T12:49:33.055Z,64.11
2023-03-06T12:52:01.672Z,64.74
2023-03-06T12:54:32.714Z,64.70
2023-03-06T12:57:00.102Z,63.89
2023-03-06T12:59:38.579Z,64.12
2023-03-06T13:02:05.119Z,64.26
2023-03-06T13:04:47.521Z,64.31
2023-03-06T13:07:16.720Z,64.66
2023-03-06T13:10:05.188Z,64.32
2023-03-06T13:12:49.244Z,64.25
2023-03-06T13:15:43.372Z,64.52
2023-03-06T13:18:21.833Z,64.77
2023-03-06T13:20:48.380Z,64.63
2023-03-06T13:23:33.796Z,64.64
2023-03-06T13:26:08.818Z,64.43
2023-03-06T13:28:51.808Z,65.02
2023-03-06T13:31:33.597Z,64.24
2023-03-06T13:34:02.846Z,64.47
2023-03-06T13:36:29.433Z,64.43
2023-03-06T13:39:00.653Z,64.14
2023-03-06T13:41:30.173Z,64.06
2023-03-06T13:44:05.305Z,64.46
2023-03-06T13:46:35.921Z,64.61
2023-03-06T13:49:12.233Z,64.78
2023-03-06T13:52:02.108Z,66.01
2023-03-06T13:54:41.021Z,66.55
2023-03-06T13:57:16.934Z,68.03
2023-03-06T14:00:12.046Z,68.36
2023-03-06T14:03:16.496Z,68.97
2023-03-06T14:05:48.955Z,69.60
2023-03-06T14:08:19.241Z,70.16
2023-03-06T14:10:48.580Z,71.04
2023-03-06T14:13:19.659Z,71.35
2023-03-06T14:15:52.207Z,72.68
2023-03-06T14:18:20.788Z,73.71
2023-03-06T14:21:02.228Z,73.89
2023-03-06T14:23:35.001Z,74.15
2023-03-06T14:26:04.826Z,74.22
2023-03-06T14:28:33.593Z,74.71
2023-03-06T14:31:02.292Z,75.18
2023-03-06T14:33:34.061Z,75.18
2023-03-06T14:36:04.310Z,75.46
2023-03-06T14:38:38.150Z,75.18
2023-03-06T14:41:05.892Z,75.66
2023-03-06T14:43:32.851Z,75.61
2023-03-06T14:46:05.869Z,75.33
2023-03-06T14:48:43.824Z,75.44
2023-03-06T14:51:21.445Z,75.34
2023-03-06T14:53:53.581Z,75.14
2023-03-06T14:56:22.804Z,75.11
2023-03-06T14:58:52.114Z,75.24
2023-03-06T15:01:40.497Z,75.24
2023-03-06T15:04:29.780Z,75.34
2023-03-06T15:06:58.539Z,75.04
2023-03-06T15:09:29.651Z,75.20
2023-03-06T15:12:29.269Z,74.92
2023-03-06T15:15:22.827Z,75.15
2023-03-06T15:17:49.549Z,75.06
2023-03-06T15:20:55.304Z,74.95
2023-03-06T15:23:34.077Z,74.98
2023-03-06T15:26:30.888Z,74.63
2023-03-06T15:29:24.680Z,74.69
2023-03-06T15:31:51.383Z,74.63
2023-03-06T15:34:24.128Z,74.56
2023-03-06T15:36:53.621Z,74.56
2023-03-06T15:39:25.886Z,74.35
2023-03-06T15:42:15.500Z,74.10
2023-03-06T15:44:42.264Z,74.10
2023-03-06T15:47:11.338Z,74.00
2023-03-06T15:49:39.337Z,73.99
2023-03-06T15:52:06.763Z,73.86
2023-03-06T15:54:33.681Z,73.87
2023-03-06T15:57:02.207Z,73.80
2023-03-06T15:59:32.892Z,73.87
2023-03-06T16:02:03.717Z,73.72
2023-03-06T16:04:30.327Z,73.69
2023-03-06T16:06:56.958Z,73.77
2023-03-06T16:15:28.274Z,72.94
2023-03-06T16:17:57.531Z,73.03
2023-03-06T16:20:28.335Z,72.70
2023-03-06T16:22:56.644Z,72.78
2023-03-06T16:25:27.751Z,72.93
2023-03-06T16:27:58.883Z,73.10
2023-03-06T16:30:33.380Z,72.98
2023-03-06T16:33:01.975Z,73.04
2023-03-06T16:35:29.950Z,72.71
2023-03-06T16:37:59.874Z,72.42
2023-03-06T16:40:37.740Z,72.06
2023-03-06T16:43:05.783Z,72.03
2023-03-06T16:45:37.651Z,72.07
2023-03-06T16:48:06.383Z,72.46
2023-03-06T16:50:38.581Z,73.02
2023-03-06T16:53:07.848Z,73.95
2023-03-06T16:55:36.033Z,74.03
2023-03-06T16:58:04.533Z,74.43
2023-03-06T17:00:34.229Z,74.81
2023-03-06T17:03:02.705Z,74.92
2023-03-06T17:05:33.868Z,75.22
2023-03-06T17:08:02.096Z,75.54
2023-03-06T17:10:30.876Z,75.37
2023-03-06T17:12:59.469Z,75.87
2023-03-06T17:15:27.407Z,75.57
2023-03-06T17:17:55.700Z,75.66
2023-03-06T17:20:23.915Z,75.86
2023-03-06T17:22:51.943Z,76.22
2023-03-06T17:25:19.990Z,76.31
2023-03-06T17:27:48.006Z,76.23
2023-03-06T17:30:16.366Z,76.37
2023-03-06T17:32:44.375Z,76.46
2023-03-06T17:35:13.018Z,76.58
2023-03-06T17:37:40.959Z,76.77
2023-03-06T17:40:10.200Z,76.79
2023-03-06T17:42:38.123Z,76.75
2023-03-06T17:45:09.624Z,76.98
2023-03-06T17:47:38.192Z,76.83
2023-03-06T17:50:06.980Z,76.87
2023-03-06T17:52:35.474Z,76.79
2023-03-06T17:55:03.712Z,77.05
2023-03-06T17:57:31.726Z,77.16
2023-03-06T17:59:59.872Z,77.14
2023-03-06T18:02:28.402Z,77.56
2023-03-06T18:04:58.197Z,77.47
2023-03-06T18:07:26.719Z,77.80
2023-03-06T18:09:54.821Z,77.89
2023-03-06T18:12:22.953Z,78.09
2023-03-06T18:14:51.044Z,78.10
2023-03-06T18:17:19.087Z,78.17
2023-03-06T18:19:47.177Z,78.81
2023-03-06T18:22:15.297Z,78.63
2023-03-06T18:24:43.368Z,78.64
2023-03-06T18:27:11.269Z,78.65
2023-03-06T18:29:39.258Z,79.06
2023-03-06T18:32:10.670Z,78.91
2023-03-06T18:34:38.820Z,78.72
2023-03-06T18:37:06.992Z,78.79
2023-03-06T18:39:35.276Z,78.86
2023-03-06T18:42:03.526Z,79.14
2023-03-06T18:44:31.503Z,79.05
2023-03-06T18:46:59.703Z,79.33
2023-03-06T18:49:28.051Z,79.28
2023-03-06T18:51:56.408Z,79.24
2023-03-06T18:54:28.389Z,79.28
2023-03-06T18:56:56.655Z,79.58
2023-03-06T18:59:25.973Z,79.36
2023-03-06T19:01:57.655Z,79.32
2023-03-06T19:04:27.133Z,79.52
2023-03-06T19:06:55.456Z,80.01
2023-03-06T19:09:23.638Z,80.20
2023-03-06T19:11:53.733Z,80.65
2023-03-06T19:14:23.010Z,80.87
2023-03-06T19:16:51.183Z,80.66
2023-03-06T19:19:20.074Z,80.84
2023-03-06T19:21:50.356Z,80.97
2023-03-06T19:24:18.342Z,81.16
2023-03-06T19:26:46.253Z,81.44
2023-03-06T19:29:14.315Z,81.28
2023-03-06T19:31:42.572Z,81.49
2023-03-06T19:34:10.851Z,81.17
2023-03-06T19:36:40.935Z,82.62
2023-03-06T19:39:09.739Z,82.45
2023-03-06T19:41:37.870Z,82.36
2023-03-06T19:44:06.250Z,82.41
2023-03-06T19:46:36.189Z,82.17
2023-03-06T19:49:11.780Z,82.37
2023-03-06T19:51:40.666Z,82.20
2023-03-06T19:54:11.374Z,82.41
2023-03-06T19:56:40.098Z,82.40
2023-03-06T19:59:08.025Z,82.59
2023-03-06T20:01:36.034Z,82.63
2023-03-06T20:04:03.994Z,82.98
2023-03-06T20:06:33.863Z,82.79
2023-03-06T20:09:04.845Z,83.20
2023-03-06T20:11:32.809Z,83.28
2023-03-06T20:14:03.778Z,82.97
2023-03-06T20:16:32.821Z,82.75
2023-03-06T20:19:02.166Z,83.19
2023-03-06T20:21:35.405Z,83.15
2023-03-06T20:24:05.080Z,83.34
2023-03-06T20:26:34.928Z,83.24
2023-03-06T20:29:02.951Z,83.76
2023-03-06T20:31:31.066Z,84.27
2023-03-06T20:33:59.866Z,84.39
2023-03-06T20:36:37.247Z,84.05
2023-03-06T20:39:09.046Z,84.12
2023-03-06T20:41:37.105Z,84.22
2023-03-06T20:44:07.277Z,83.64
2023-03-06T20:46:35.335Z,84.31
2023-03-06T20:49:05.273Z,84.15
2023-03-06T20:51:37.532Z,84.61
2023-03-06T20:54:07.541Z,84.10
2023-03-06T20:56:36.945Z,84.32
2023-03-06T20:59:05.939Z,84.32
2023-03-06T21:01:38.403Z,84.06
2023-03-06T21:04:08.739Z,84.23
2023-03-06T21:06:39.798Z,83.84
2023-03-06T21:09:07.776Z,84.02
2023-03-06T21:11:35.849Z,83.78
2023-03-06T21:14:04.153Z,84.20
2023-03-06T21:16:32.239Z,84.05
2023-03-06T21:19:00.615Z,84.17
2023-03-06T21:21:31.483Z,84.53
2023-03-06T21:24:00.420Z,84.47
2023-03-06T21:26:30.509Z,84.95
2023-03-06T21:28:59.706Z,84.20
2023-03-06T21:31:28.674Z,84.84
2023-03-06T21:33:58.763Z,84.17
2023-03-06T21:36:27.971Z,84.41
2023-03-06T21:38:56.093Z,84.16
2023-03-06T21:41:27.782Z,84.30
2023-03-06T21:43:57.543Z,84.35
2023-03-06T21:46:26.325Z,84.43
2023-03-06T21:48:57.889Z,84.60
2023-03-06T21:51:27.166Z,84.21
2023-03-06T21:53:55.935Z,84.71
2023-03-06T21:56:25.524Z,84.28
2023-03-06T21:58:53.862Z,84.26
2023-03-06T22:01:25.028Z,84.61
2023-03-06T22:03:53.939Z,84.27
2023-03-06T22:06:27.653Z,84.55
2023-03-06T22:08:59.619Z,84.45
2023-03-06T22:11:31.680Z,83.96
2023-03-06T22:14:04.521Z,84.27
2023-03-06T22:16:34.395Z,83.87
2023-03-06T22:19:02.839Z,84.12
2023-03-06T22:21:31.027Z,84.45
2023-03-06T22:24:01.061Z,84.02
2023-03-06T22:26:29.944Z,84.11
2023-03-06T22:28:58.260Z,84.21
2023-03-06T22:31:28.550Z,84.29
2023-03-06T22:33:59.032Z,84.16
2023-03-06T22:36:28.286Z,84.46
2023-03-06T22:38:59.341Z,84.45
2023-03-06T22:41:28.243Z,84.42
2023-03-06T22:44:00.721Z,84.38
2023-03-06T22:46:29.897Z,84.80
2023-03-06T22:48:59.212Z,85.01
2023-03-06T22:51:28.339Z,84.60
2023-03-06T22:53:56.684Z,84.74
2023-03-06T22:56:25.273Z,84.33
2023-03-06T22:58:53.415Z,84.66
2023-03-06T23:01:25.323Z,84.72
2023-03-06T23:03:56.278Z,84.78
2023-03-06T23:06:28.299Z,84.75
2023-03-06T23:09:04.218Z,85.09
2023-03-06T23:11:33.109Z,84.41
2023-03-06T23:14:19.787Z,84.62
2023-03-06T23:17:06.397Z,84.62
2023-03-06T23:19:53.334Z,85.00
2023-03-06T23:22:39.787Z,84.45
2023-03-06T23:25:26.197Z,84.88
2023-03-06T23:27:55.747Z,84.64
2023-03-06T23:30:23.766Z,84.38
2023-03-06T23:32:51.730Z,84.42
2023-03-06T23:35:20.296Z,84.52
2023-03-06T23:37:48.252Z,84.42
2023-03-06T23:40:16.921Z,84.32
2023-03-06T23:42:45.411Z,84.82
2023-03-06T23:45:13.732Z,84.60
2023-03-06T23:47:42.189Z,84.60
2023-03-06T23:50:11.014Z,84.51
2023-03-06T23:52:40.472Z,84.24
2023-03-06T23:55:08.991Z,84.19
2023-03-06T23:57:37.188Z,84.20
